createdAt,value
2023-11-30T00:00:24.158Z,13.53
2023-11-30T00:03:11.699Z,12.83
2023-11-30T00:05:38.907Z,12.95
2023-11-30T00:08:06.420Z,13.18
2023-11-30T00:10:33.575Z,14.00
2023-11-30T00:13:01.056Z,14.43
2023-11-30T00:15:28.469Z,13.50
2023-11-30T00:17:56.039Z,14.68
2023-11-30T00:20:23.308Z,14.15
2023-11-30T00:22:50.780Z,14.40
2023-11-30T00:25:18.085Z,15.52
2023-11-30T00:27:45.553Z,15.73
2023-11-30T00:30:13.251Z,14.40
2023-11-30T00:32:40.824Z,14.32
2023-11-30T00:35:08.449Z,13.90
2023-11-30T00:37:36.007Z,14.73
2023-11-30T00:40:05.199Z,14.65
2023-11-30T00:42:32.958Z,13.13
2023-11-30T00:45:00.356Z,13.07
2023-11-30T00:47:27.938Z,13.93
2023-11-30T00:49:55.463Z,13.45
2023-11-30T00:52:22.942Z,13.30
2023-11-30T00:54:50.134Z,13.60
2023-11-30T00:57:17.646Z,13.53
2023-11-30T00:59:45.154Z,14.25
2023-11-30T01:02:12.926Z,13.02
2023-11-30T01:04:43.553Z,14.07
2023-11-30T01:07:11.070Z,14.63
2023-11-30T01:09:41.409Z,15.07
2023-11-30T01:12:09.272Z,14.23
2023-11-30T01:14:36.536Z,15.00
2023-11-30T01:17:04.219Z,14.75
2023-11-30T01:19:31.399Z,15.05
2023-11-30T01:21:59.079Z,14.50
2023-11-30T01:24:26.250Z,13.83
2023-11-30T01:26:53.813Z,14.53
2023-11-30T01:29:20.998Z,13.57
2023-11-30T01:31:48.510Z,13.00
2023-11-30T01:34:15.661Z,13.23
2023-11-30T01:36:43.145Z,14.73
2023-11-30T01:39:10.355Z,11.20
2023-11-30T01:41:37.963Z,13.05
2023-11-30T01:44:05.376Z,12.93
2023-11-30T01:46:33.579Z,13.00
2023-11-30T01:49:01.142Z,13.27
2023-11-30T01:51:29.763Z,13.50
2023-11-30T01:53:57.880Z,14.27
2023-11-30T01:56:25.540Z,13.50
2023-11-30T01:58:53.623Z,14.50
2023-11-30T02:01:21.675Z,13.97
2023-11-30T02:03:49.169Z,13.07
2023-11-30T02:06:20.496Z,14.47
2023-11-30T02:08:47.761Z,13.20
2023-11-30T02:11:15.683Z,13.07
2023-11-30T02:13:42.891Z,13.03
2023-11-30T02:16:10.981Z,13.27
2023-11-30T02:18:38.497Z,12.83
2023-11-30T02:21:06.151Z,12.90
2023-11-30T02:23:33.365Z,12.63
2023-11-30T02:26:00.925Z,12.45
2023-11-30T02:28:28.151Z,12.70
2023-11-30T02:30:55.704Z,12.70
2023-11-30T02:33:22.938Z,13.30
2023-11-30T02:35:50.577Z,12.83
2023-11-30T02:38:17.764Z,11.97
2023-11-30T02:40:46.033Z,12.88
2023-11-30T02:43:13.191Z,12.98
2023-11-30T02:45:40.894Z,13.10
2023-11-30T02:48:08.257Z,14.35
2023-11-30T02:50:35.914Z,12.57
2023-11-30T02:53:03.262Z,14.15
2023-11-30T02:55:30.758Z,12.45
2023-11-30T02:57:58.026Z,13.40
2023-11-30T03:00:25.857Z,13.13
2023-11-30T03:02:53.137Z,13.15
2023-11-30T03:05:20.667Z,11.87
2023-11-30T03:07:47.824Z,11.98
2023-11-30T03:10:15.262Z,12.48
2023-11-30T03:12:42.448Z,12.25
2023-11-30T03:15:10.383Z,12.60
2023-11-30T03:17:37.863Z,12.60
2023-11-30T03:20:05.869Z,13.40
2023-11-30T03:22:33.092Z,13.20
2023-11-30T03:25:00.776Z,12.25
2023-11-30T03:27:27.979Z,13.23
2023-11-30T03:29:55.518Z,13.07
2023-11-30T03:32:22.713Z,13.05
2023-11-30T03:34:50.243Z,12.10
2023-11-30T03:37:17.520Z,13.60
2023-11-30T03:39:45.140Z,12.90
2023-11-30T03:42:12.416Z,12.80
2023-11-30T03:44:39.897Z,13.30
2023-11-30T03:47:07.205Z,12.93
2023-11-30T03:49:34.978Z,13.32
2023-11-30T03:52:02.428Z,13.77
2023-11-30T03:54:30.047Z,14.65
2023-11-30T03:56:57.300Z,15.10
2023-11-30T03:59:24.841Z,15.10
2023-11-30T04:01:52.221Z,15.18
2023-11-30T04:04:19.848Z,14.88
2023-11-30T04:06:47.071Z,15.02
2023-11-30T04:09:17.714Z,15.02
2023-11-30T04:11:46.282Z,14.40
2023-11-30T04:14:13.754Z,13.82
2023-11-30T04:16:41.116Z,13.73
2023-11-30T04:19:08.578Z,14.95
2023-11-30T04:21:35.850Z,13.85
2023-11-30T04:24:03.444Z,14.10
2023-11-30T04:26:31.019Z,13.75
2023-11-30T04:28:58.852Z,14.23
2023-11-30T04:31:26.095Z,13.98
2023-11-30T04:33:53.792Z,13.68
2023-11-30T04:36:21.079Z,14.97
2023-11-30T04:38:48.599Z,14.05
2023-11-30T04:41:15.759Z,15.95
2023-11-30T04:43:43.279Z,15.98
2023-11-30T04:46:10.484Z,13.95
2023-11-30T04:48:40.032Z,14.27
2023-11-30T04:51:09.303Z,13.55
2023-11-30T04:53:37.201Z,12.68
2023-11-30T04:56:04.817Z,12.98
2023-11-30T04:58:32.409Z,13.45
2023-11-30T05:00:59.587Z,12.73
2023-11-30T05:03:27.408Z,13.45
2023-11-30T05:05:54.890Z,13.63
2023-11-30T05:08:22.327Z,13.35
2023-11-30T05:10:49.768Z,14.27
2023-11-30T05:13:17.308Z,13.97
2023-11-30T05:15:46.295Z,13.10
2023-11-30T05:18:14.967Z,14.52
2023-11-30T05:20:42.191Z,12.90
2023-11-30T05:23:09.582Z,13.88
2023-11-30T05:25:36.908Z,13.88
2023-11-30T05:28:05.903Z,14.40
2023-11-30T05:30:33.471Z,14.13
2023-11-30T05:33:01.059Z,14.00
2023-11-30T05:35:28.312Z,13.13
2023-11-30T05:37:55.702Z,13.60
2023-11-30T05:40:22.938Z,14.50
2023-11-30T05:42:50.524Z,15.32
2023-11-30T05:45:17.899Z,14.68
2023-11-30T05:47:45.319Z,15.30
2023-11-30T05:50:13.599Z,14.70
2023-11-30T05:52:41.215Z,15.27
2023-11-30T05:55:09.028Z,16.13
2023-11-30T05:57:39.337Z,14.38
2023-11-30T06:00:07.135Z,15.75
2023-11-30T06:02:34.619Z,15.02
2023-11-30T06:05:01.913Z,15.07
2023-11-30T06:07:30.859Z,15.52
2023-11-30T06:09:58.167Z,16.40
2023-11-30T06:12:25.673Z,15.65
2023-11-30T06:14:52.848Z,15.52
2023-11-30T06:17:20.323Z,16.88
2023-11-30T06:19:47.774Z,16.02
2023-11-30T06:22:15.285Z,16.13
2023-11-30T06:24:42.495Z,16.73
2023-11-30T06:27:09.996Z,17.17
2023-11-30T06:29:37.239Z,18.27
2023-11-30T06:32:05.714Z,18.57
2023-11-30T06:34:34.399Z,19.00
2023-11-30T06:37:01.925Z,18.57
2023-11-30T06:39:29.999Z,18.45
2023-11-30T06:41:57.549Z,17.73
2023-11-30T06:44:24.684Z,18.52
2023-11-30T06:46:52.193Z,18.83
2023-11-30T06:49:19.662Z,16.73
2023-11-30T06:51:47.175Z,19.40
2023-11-30T06:54:14.349Z,18.02
2023-11-30T06:56:41.834Z,18.70
2023-11-30T06:59:08.961Z,18.53
2023-11-30T07:01:37.669Z,18.23
2023-11-30T07:04:05.058Z,18.77
2023-11-30T07:06:32.786Z,17.13
2023-11-30T07:09:00.049Z,18.55
2023-11-30T07:11:27.481Z,18.27
2023-11-30T07:13:54.714Z,19.47
2023-11-30T07:16:22.266Z,17.02
2023-11-30T07:18:49.520Z,17.10
2023-11-30T07:21:17.064Z,17.05
2023-11-30T07:23:44.938Z,19.45
2023-11-30T07:26:13.232Z,17.85
2023-11-30T07:28:41.166Z,18.23
2023-11-30T07:31:09.131Z,18.38
2023-11-30T07:33:38.941Z,17.42
2023-11-30T07:36:09.610Z,18.88
2023-11-30T07:38:38.595Z,18.60
2023-11-30T07:41:07.521Z,20.42
2023-11-30T07:43:34.872Z,18.90
2023-11-30T07:46:02.805Z,18.15
2023-11-30T07:48:30.722Z,19.30
2023-11-30T07:50:58.134Z,17.95
2023-11-30T07:53:25.399Z,18.05
2023-11-30T07:55:57.247Z,18.25
2023-11-30T07:58:25.079Z,16.80
2023-11-30T08:00:52.880Z,17.85
2023-11-30T08:03:20.429Z,16.80
2023-11-30T08:05:48.031Z,17.35
2023-11-30T08:08:15.186Z,17.08
2023-11-30T08:10:42.671Z,18.52
2023-11-30T08:13:12.158Z,20.58
2023-11-30T08:15:39.680Z,19.40
2023-11-30T08:18:09.219Z,18.00
2023-11-30T08:20:36.857Z,19.00
2023-11-30T08:23:04.280Z,20.05
2023-11-30T08:25:32.875Z,20.70
2023-11-30T08:28:00.281Z,17.65
2023-11-30T08:30:27.958Z,14.88
2023-11-30T08:32:55.292Z,18.50
2023-11-30T08:35:23.034Z,18.08
2023-11-30T08:37:50.320Z,17.42
2023-11-30T08:40:17.939Z,14.80
2023-11-30T08:42:45.184Z,13.82
2023-11-30T08:45:12.720Z,14.35
2023-11-30T08:47:39.921Z,13.23
2023-11-30T08:50:08.916Z,13.48
2023-11-30T08:52:36.279Z,12.90
2023-11-30T08:55:04.045Z,11.73
2023-11-30T08:57:31.445Z,12.00
2023-11-30T08:59:59.267Z,12.02
2023-11-30T09:02:26.724Z,13.13
2023-11-30T09:04:54.605Z,10.13
2023-11-30T09:07:22.104Z,10.18
2023-11-30T09:09:51.646Z,8.60
2023-11-30T09:12:19.334Z,9.88
2023-11-30T09:14:46.922Z,9.90
2023-11-30T09:17:14.174Z,9.30
2023-11-30T09:19:41.590Z,11.35
2023-11-30T09:22:09.125Z,11.93
2023-11-30T09:24:36.668Z,11.63
2023-11-30T09:27:04.300Z,11.35
2023-11-30T09:29:31.830Z,9.95
2023-11-30T09:32:00.809Z,10.82
2023-11-30T09:34:30.472Z,11.57
2023-11-30T09:36:57.897Z,12.10
2023-11-30T09:39:25.326Z,11.13
2023-11-30T09:42:01.977Z,10.98
2023-11-30T09:44:29.452Z,10.90
2023-11-30T09:46:56.853Z,10.02
2023-11-30T09:49:24.559Z,10.77
2023-11-30T09:51:53.285Z,10.75
2023-11-30T09:54:21.651Z,11.00
2023-11-30T09:56:48.934Z,9.80
2023-11-30T09:59:16.599Z,9.55
2023-11-30T10:01:44.409Z,10.52
2023-11-30T10:04:16.686Z,9.90
2023-11-30T10:06:46.041Z,11.00
2023-11-30T10:09:14.403Z,10.88
2023-11-30T10:11:42.096Z,10.60
2023-11-30T10:14:10.258Z,10.02
2023-11-30T10:16:37.523Z,10.10
2023-11-30T10:19:08.110Z,10.77
2023-11-30T10:21:36.096Z,10.30
2023-11-30T10:24:03.817Z,10.43
2023-11-30T10:26:35.380Z,11.15
2023-11-30T10:29:07.966Z,10.30
2023-11-30T10:31:39.052Z,10.73
2023-11-30T10:34:12.790Z,11.05
2023-11-30T10:36:41.478Z,10.60
2023-11-30T10:39:17.942Z,11.48
2023-11-30T10:41:52.082Z,10.77
2023-11-30T10:44:29.326Z,11.23
2023-11-30T10:46:58.801Z,9.80
2023-11-30T10:49:28.866Z,10.50
2023-11-30T10:52:01.082Z,10.15
2023-11-30T10:54:40.102Z,10.38
2023-11-30T10:57:08.190Z,10.85
2023-11-30T10:59:35.968Z,11.18
2023-11-30T11:02:07.061Z,11.80
2023-11-30T11:04:41.908Z,10.03
2023-11-30T11:07:13.399Z,9.85
2023-11-30T11:09:46.065Z,9.30
2023-11-30T11:12:28.304Z,8.82
2023-11-30T11:15:14.346Z,8.77
2023-11-30T11:17:51.593Z,8.35
2023-11-30T11:20:30.489Z,9.07
2023-11-30T11:23:06.322Z,8.23
2023-11-30T11:25:47.328Z,8.52
2023-11-30T11:28:18.638Z,8.50
2023-11-30T11:30:48.950Z,8.30
2023-11-30T11:33:18.665Z,7.30
2023-11-30T11:35:47.348Z,7.85
2023-11-30T11:38:14.675Z,7.28
2023-11-30T11:40:43.095Z,7.38
2023-11-30T11:43:10.311Z,7.15
2023-11-30T11:45:38.838Z,7.15
2023-11-30T11:48:09.719Z,7.95
2023-11-30T11:50:37.396Z,7.28
2023-11-30T11:53:04.835Z,8.38
2023-11-30T11:55:32.647Z,7.53
2023-11-30T11:58:00.071Z,7.88
2023-11-30T12:00:28.038Z,7.93
2023-11-30T12:03:07.004Z,7.70
2023-11-30T12:05:34.880Z,7.82
2023-11-30T12:08:02.812Z,6.85
2023-11-30T12:10:33.145Z,6.75
2023-11-30T12:13:01.928Z,6.93
2023-11-30T12:15:30.566Z,7.63
2023-11-30T12:17:58.588Z,7.85
2023-11-30T12:20:26.262Z,6.70
2023-11-30T12:22:53.700Z,6.72
2023-11-30T12:25:21.588Z,6.85
2023-11-30T12:27:48.962Z,5.97
2023-11-30T12:30:16.663Z,6.57
2023-11-30T12:32:44.038Z,7.75
2023-11-30T12:35:11.557Z,7.57
2023-11-30T12:37:39.339Z,7.50
2023-11-30T12:40:15.043Z,7.40
2023-11-30T12:42:45.953Z,7.38
2023-11-30T12:45:14.036Z,6.53
2023-11-30T12:47:42.550Z,6.65
2023-11-30T12:50:11.324Z,6.30
2023-11-30T12:52:39.036Z,6.07
2023-11-30T12:55:06.986Z,5.40
2023-11-30T12:57:40.124Z,6.43
2023-11-30T13:00:15.798Z,5.32
2023-11-30T13:02:47.016Z,5.60
2023-11-30T13:05:15.804Z,5.95
2023-11-30T13:07:43.524Z,5.45
2023-11-30T13:10:12.317Z,7.18
2023-11-30T13:12:40.666Z,7.03
2023-11-30T13:15:11.818Z,6.93
2023-11-30T13:17:40.160Z,7.22
2023-11-30T13:20:14.512Z,7.13
2023-11-30T13:22:47.352Z,7.50
2023-11-30T13:25:15.585Z,7.88
2023-11-30T13:27:47.553Z,7.97
2023-11-30T13:30:16.925Z,7.55
2023-11-30T13:32:44.712Z,7.43
2023-11-30T13:35:12.059Z,8.30
2023-11-30T13:37:40.381Z,7.70
2023-11-30T13:40:09.117Z,7.70
2023-11-30T13:42:36.897Z,8.80
2023-11-30T13:45:06.631Z,8.27
2023-11-30T13:47:34.775Z,8.68
2023-11-30T13:50:02.174Z,9.30
2023-11-30T13:52:29.877Z,8.45
2023-11-30T13:54:57.166Z,9.43
2023-11-30T13:57:24.725Z,8.85
2023-11-30T13:59:51.971Z,8.70
2023-11-30T14:02:19.504Z,9.15
2023-11-30T14:04:47.490Z,9.43
2023-11-30T14:07:15.077Z,8.65
2023-11-30T14:09:42.296Z,9.70
2023-11-30T14:12:09.983Z,9.38
2023-11-30T14:14:38.685Z,10.55
2023-11-30T14:17:10.624Z,10.52
2023-11-30T14:19:37.879Z,9.77
2023-11-30T14:22:08.908Z,9.68
2023-11-30T14:24:36.274Z,10.25
2023-11-30T14:27:04.045Z,9.20
2023-11-30T14:29:31.275Z,8.60
2023-11-30T14:31:58.736Z,8.85
2023-11-30T14:34:25.935Z,9.90
2023-11-30T14:36:53.924Z,8.38
2023-11-30T14:39:25.693Z,13.00
2023-11-30T14:41:53.469Z,11.23
2023-11-30T14:44:20.606Z,9.73
2023-11-30T14:46:48.174Z,9.50
2023-11-30T14:49:15.344Z,10.07
2023-11-30T14:51:45.141Z,12.18
2023-11-30T14:54:12.417Z,11.38
2023-11-30T14:56:41.042Z,10.25
2023-11-30T14:59:09.726Z,9.18
2023-11-30T15:01:37.795Z,9.23
2023-11-30T15:04:05.341Z,8.30
2023-11-30T15:06:33.207Z,9.77
2023-11-30T15:09:00.389Z,11.18
2023-11-30T15:11:27.966Z,9.70
2023-11-30T15:13:55.543Z,10.55
2023-11-30T15:16:24.001Z,10.38
2023-11-30T15:18:51.645Z,11.60
2023-11-30T15:21:19.747Z,9.88
2023-11-30T15:23:46.984Z,9.13
2023-11-30T15:26:16.013Z,9.50
2023-11-30T15:28:44.093Z,8.68
2023-11-30T15:31:11.809Z,9.15
2023-11-30T15:33:39.101Z,8.88
2023-11-30T15:36:07.839Z,12.98
2023-11-30T15:38:36.771Z,14.98
2023-11-30T15:41:05.301Z,15.43
2023-11-30T15:43:32.572Z,13.23
2023-11-30T15:46:00.075Z,12.27
2023-11-30T15:48:27.470Z,15.82
2023-11-30T15:50:54.982Z,15.13
2023-11-30T15:53:22.178Z,14.32
2023-11-30T15:55:49.798Z,13.63
2023-11-30T15:58:17.009Z,13.15
2023-11-30T16:00:44.608Z,12.57
2023-11-30T16:03:13.098Z,13.57
2023-11-30T16:05:40.967Z,13.57
2023-11-30T16:08:08.160Z,12.82
2023-11-30T16:10:35.610Z,13.38
2023-11-30T16:13:02.865Z,14.52
2023-11-30T16:15:30.341Z,17.17
2023-11-30T16:17:57.724Z,19.77
2023-11-30T16:20:25.724Z,17.52
2023-11-30T16:22:52.875Z,19.63
2023-11-30T16:25:20.629Z,19.25
2023-11-30T16:27:47.984Z,20.75
2023-11-30T16:30:15.609Z,20.50
2023-11-30T16:32:43.072Z,20.80
2023-11-30T16:35:10.934Z,18.80
2023-11-30T16:37:38.272Z,24.00
2023-11-30T16:40:08.382Z,40.63
2023-11-30T16:42:35.808Z,88.18
2023-11-30T16:45:05.082Z,80.00
2023-11-30T16:47:33.767Z,82.22
2023-11-30T16:50:01.701Z,71.78
2023-11-30T16:52:30.354Z,66.05
2023-11-30T16:54:57.969Z,69.03
2023-11-30T16:57:25.610Z,63.22
2023-11-30T16:59:53.227Z,60.85
2023-11-30T17:02:20.543Z,58.35
2023-11-30T17:04:48.131Z,56.08
2023-11-30T17:07:15.369Z,50.28
2023-11-30T17:09:42.936Z,48.22
2023-11-30T17:12:15.691Z,42.25
2023-11-30T17:14:43.380Z,35.88
2023-11-30T17:17:10.650Z,30.98
2023-11-30T17:19:38.103Z,28.48
2023-11-30T17:22:05.423Z,26.98
2023-11-30T17:24:34.704Z,37.58
2023-11-30T17:27:03.807Z,38.28
2023-11-30T17:29:31.290Z,34.05
2023-11-30T17:32:00.169Z,38.35
2023-11-30T17:34:28.774Z,44.25
2023-11-30T17:36:56.078Z,43.03
2023-11-30T17:39:23.526Z,41.00
2023-11-30T17:41:50.707Z,39.30
2023-11-30T17:44:18.245Z,42.90
2023-11-30T17:46:45.463Z,36.90
2023-11-30T17:49:13.263Z,36.50
2023-11-30T17:51:40.430Z,35.15
2023-11-30T17:54:08.001Z,32.47
2023-11-30T17:56:35.137Z,35.08
2023-11-30T17:59:03.067Z,35.45
2023-11-30T18:01:30.697Z,37.10
2023-11-30T18:03:58.429Z,41.35
2023-11-30T18:06:26.810Z,40.40
2023-11-30T18:08:55.519Z,45.60
2023-11-30T18:11:22.835Z,39.92
2023-11-30T18:13:50.261Z,41.25
2023-11-30T18:16:17.530Z,38.58
2023-11-30T18:18:45.152Z,35.53
2023-11-30T18:21:12.988Z,33.78
2023-11-30T18:23:40.552Z,29.38
2023-11-30T18:26:07.834Z,29.92
2023-11-30T18:28:35.403Z,27.70
2023-11-30T18:31:12.232Z,25.40
2023-11-30T18:33:48.289Z,27.40
2023-11-30T18:36:15.514Z,32.42
2023-11-30T18:38:50.169Z,37.00
2023-11-30T18:41:22.382Z,37.20
2023-11-30T18:43:50.921Z,37.03
2023-11-30T18:46:19.188Z,34.33
2023-11-30T18:48:47.058Z,35.13
2023-11-30T18:51:14.377Z,46.25
2023-11-30T18:53:42.608Z,44.13
2023-11-30T18:56:10.001Z,36.78
2023-11-30T18:58:39.669Z,33.03
2023-11-30T19:01:06.956Z,32.25
2023-11-30T19:03:34.505Z,30.65
2023-11-30T19:06:01.836Z,34.00
2023-11-30T19:08:29.328Z,34.45
2023-11-30T19:10:56.440Z,37.50
2023-11-30T19:13:23.912Z,38.53
2023-11-30T19:15:51.838Z,33.10
2023-11-30T19:18:19.493Z,34.35
2023-11-30T19:20:46.692Z,30.88
2023-11-30T19:23:14.175Z,28.88
2023-11-30T19:25:42.469Z,28.25
2023-11-30T19:28:10.162Z,26.52
2023-11-30T19:30:37.512Z,34.78
2023-11-30T19:33:05.076Z,35.25
2023-11-30T19:35:34.522Z,31.63
2023-11-30T19:38:02.130Z,28.60
2023-11-30T19:40:29.331Z,35.17
2023-11-30T19:42:57.896Z,39.28
2023-11-30T19:45:25.113Z,38.35
2023-11-30T19:47:52.695Z,33.72
2023-11-30T19:50:19.912Z,33.72
2023-11-30T19:52:47.476Z,29.45
2023-11-30T19:55:14.759Z,30.48
2023-11-30T19:57:42.337Z,31.95
2023-11-30T20:00:10.484Z,34.15
2023-11-30T20:02:38.036Z,40.92
2023-11-30T20:05:05.611Z,35.78
2023-11-30T20:07:33.052Z,45.90
2023-11-30T20:10:00.309Z,40.53
2023-11-30T20:12:28.998Z,44.63
2023-11-30T20:14:56.301Z,41.90
2023-11-30T20:17:23.794Z,45.30
2023-11-30T20:19:50.967Z,37.17
2023-11-30T20:22:18.457Z,37.22
2023-11-30T20:24:45.708Z,35.92
2023-11-30T20:27:13.241Z,38.63
2023-11-30T20:29:40.737Z,32.95
2023-11-30T20:32:08.353Z,32.38
2023-11-30T20:34:35.642Z,31.92
2023-11-30T20:37:03.118Z,37.42
2023-11-30T20:39:30.397Z,32.38
2023-11-30T20:41:58.301Z,32.60
2023-11-30T20:44:27.054Z,30.77
2023-11-30T20:46:54.554Z,38.65
2023-11-30T20:49:21.692Z,37.95
2023-11-30T20:51:49.505Z,36.20
2023-11-30T20:54:17.909Z,35.50
2023-11-30T20:56:48.482Z,34.78
2023-11-30T20:59:16.504Z,38.38
2023-11-30T21:01:50.180Z,34.35
2023-11-30T21:04:17.655Z,44.35
2023-11-30T21:06:45.305Z,49.90
2023-11-30T21:09:12.544Z,53.15
2023-11-30T21:11:40.166Z,58.88
2023-11-30T21:14:09.543Z,52.88
2023-11-30T21:16:37.417Z,80.18
2023-11-30T21:19:05.043Z,83.97
2023-11-30T21:21:32.686Z,67.20
2023-11-30T21:23:59.934Z,66.10
2023-11-30T21:26:27.542Z,72.68
2023-11-30T21:28:54.766Z,71.80
2023-11-30T21:31:23.745Z,74.30
2023-11-30T21:33:51.367Z,64.85
2023-11-30T21:36:21.982Z,59.83
2023-11-30T21:38:49.513Z,59.47
2023-11-30T21:41:17.375Z,59.55
2023-11-30T21:43:44.944Z,62.15
2023-11-30T21:46:12.517Z,55.58
2023-11-30T21:48:40.161Z,49.15
2023-11-30T21:51:07.725Z,47.28
2023-11-30T21:53:36.207Z,48.95
2023-11-30T21:56:03.685Z,48.97
2023-11-30T21:58:31.426Z,44.03
2023-11-30T22:00:58.939Z,49.45
2023-11-30T22:03:26.786Z,43.85
2023-11-30T22:05:54.442Z,46.28
2023-11-30T22:08:22.097Z,41.58
2023-11-30T22:10:50.992Z,56.10
2023-11-30T22:13:18.519Z,45.00
2023-11-30T22:15:46.156Z,45.83
2023-11-30T22:18:13.700Z,64.43
2023-11-30T22:20:44.993Z,63.83
2023-11-30T22:23:15.799Z,58.47
2023-11-30T22:25:43.835Z,61.13
2023-11-30T22:28:11.967Z,54.20
2023-11-30T22:30:39.243Z,47.88
2023-11-30T22:33:06.773Z,57.40
2023-11-30T22:35:34.027Z,57.83
2023-11-30T22:38:01.539Z,58.40
2023-11-30T22:40:28.881Z,62.63
2023-11-30T22:42:56.421Z,57.58
2023-11-30T22:45:24.013Z,54.40
2023-11-30T22:47:51.898Z,54.25
2023-11-30T22:50:19.306Z,51.03
2023-11-30T22:52:47.029Z,49.88
2023-11-30T22:55:14.533Z,50.63
2023-11-30T22:57:42.235Z,56.17
2023-11-30T23:00:17.453Z,58.80
2023-11-30T23:02:49.077Z,74.18
2023-11-30T23:05:20.038Z,71.97
2023-11-30T23:07:48.509Z,60.30
2023-11-30T23:10:18.691Z,70.90
2023-11-30T23:12:46.568Z,71.63
2023-11-30T23:15:13.919Z,69.78
2023-11-30T23:17:41.551Z,55.75
2023-11-30T23:20:09.426Z,56.40
2023-11-30T23:22:37.287Z,51.63
2023-11-30T23:25:04.717Z,55.08
2023-11-30T23:27:33.665Z,63.13
2023-11-30T23:30:00.921Z,54.42
2023-11-30T23:32:28.563Z,62.30
2023-11-30T23:34:55.853Z,58.38
2023-11-30T23:37:23.409Z,60.83
2023-11-30T23:39:51.201Z,58.28
2023-11-30T23:42:18.802Z,52.65
2023-11-30T23:44:46.135Z,54.60
2023-11-30T23:47:13.747Z,53.88
2023-11-30T23:49:41.172Z,53.67
2023-11-30T23:52:08.742Z,44.60
2023-11-30T23:54:36.046Z,40.75
2023-11-30T23:57:04.478Z,42.42
2023-11-30T23:59:32.939Z,40.58
